Time;durP1;ratioP1;P1;durP2;ratioP2;P2;SDS_P1;SDS_P2;PMS_P1;PMS_P2;Temp;Humidity;BMP_temperature;BMP_pressure;BME280_temperature;BME280_humidity;BME280_pressure;Samples;Min_cycle;Max_cycle;Signal;HPM_P1;HPM_P2
2023/10/26 00:01:06;;;;;;;19.4;10.2;;;;;;;6.54;90.98;;;;;
2023/10/26 00:12:06;;;;;;;19.4;10.2;;;;;;;6.83;90.47;;;;;
2023/10/26 00:23:06;;;;;;;13.7;9.5;;;;;;;6.95;90.05;;;;;
2023/10/26 00:33:06;;;;;;;13.7;9.5;;;;;;;7.11;89.89;;;;;
2023/10/26 00:43:06;;;;;;;13.7;9.5;;;;;;;7.14;89.17;;;;;
2023/10/26 00:54:06;;;;;;;17.6;10.2;;;;;;;7.16;89.1;;;;;
2023/10/26 01:04:06;;;;;;;17.6;10.2;;;;;;;7.18;88.87;;;;;
2023/10/26 01:15:06;;;;;;;17.6;10.2;;;;;;;6.98;89.02;;;;;
2023/10/26 01:26:06;;;;;;;14.8;9;;;;;;;7.06;89.06;;;;;
2023/10/26 01:36:06;;;;;;;14.8;9;;;;;;;7.05;88.76;;;;;
2023/10/26 01:46:06;;;;;;;14.8;9;;;;;;;7.07;89.07;;;;;
2023/10/26 01:56:06;;;;;;;14.5;8.3;;;;;;;7.04;89.13;;;;;
2023/10/26 02:07:06;;;;;;;14.5;8.3;;;;;;;6.95;88.5;;;;;
2023/10/26 02:17:06;;;;;;;15.7;8;;;;;;;6.93;89.05;;;;;
2023/10/26 02:28:06;;;;;;;15.7;8;;;;;;;7.06;89.23;;;;;
2023/10/26 02:38:06;;;;;;;15.7;8;;;;;;;6.87;89.2;;;;;
2023/10/26 02:48:08;;;;;;;12.1;7;;;;;;;6.9;88.44;;;;;
2023/10/26 02:59:06;;;;;;;12.1;7;;;;;;;6.93;89.41;;;;;
2023/10/26 03:10:06;;;;;;;12.1;7;;;;;;;6.83;88.93;;;;;
2023/10/26 03:20:06;;;;;;;13;6.9;;;;;;;6.63;88.73;;;;;
2023/10/26 03:31:06;;;;;;;13;6.9;;;;;;;6.73;88.79;;;;;
2023/10/26 03:42:06;;;;;;;13;6.9;;;;;;;6.61;89.51;;;;;
2023/10/26 03:52:06;;;;;;;11.7;7.3;;;;;;;6.8;89.74;;;;;
2023/10/26 04:02:06;;;;;;;11.7;7.3;;;;;;;6.91;89.64;;;;;
2023/10/26 04:12:06;;;;;;;11.7;7.3;;;;;;;6.89;89.17;;;;;
2023/10/26 04:23:06;;;;;;;14.2;8.9;;;;;;;6.88;90.04;;;;;
2023/10/26 04:33:06;;;;;;;14.2;8.9;;;;;;;6.94;90.33;;;;;
2023/10/26 04:44:06;;;;;;;14.2;8.9;;;;;;;7.3;90.44;;;;;
2023/10/26 04:54:06;;;;;;;18.1;10.5;;;;;;;7.56;89.9;;;;;
2023/10/26 05:05:07;;;;;;;18.1;10.5;;;;;;;7.31;90.11;;;;;
2023/10/26 05:15:06;;;;;;;18.1;10.5;;;;;;;7.71;90.55;;;;;
2023/10/26 05:25:08;;;;;;;16.8;10.7;;;;;;;7.84;89.77;;;;;
2023/10/26 05:36:06;;;;;;;16.8;10.7;;;;;;;7.92;90.17;;;;;
2023/10/26 05:46:06;;;;;;;16.8;10.7;;;;;;;8.12;90.23;;;;;
2023/10/26 05:56:06;;;;;;;;;;;;;;;;;;;;;
2023/10/26 06:06:06;;;;;;;19.6;11.1;;;;;;;8.69;92.55;;;;;
2023/10/26 06:17:06;;;;;;;10.8;6.6;;;;;;;9.31;92.76;;;;;
2023/10/26 06:27:07;;;;;;;10.8;6.6;;;;;;;9.76;92.13;;;;;
2023/10/26 06:38:06;;;;;;;10.8;6.6;;;;;;;10.18;92.06;;;;;
2023/10/26 06:49:06;;;;;;;5.9;3.2;;;;;;;10.75;91.9;;;;;
2023/10/26 07:00:06;;;;;;;5.9;3.2;;;;;;;11.31;91.09;;;;;
2023/10/26 07:10:06;;;;;;;5.9;3.2;;;;;;;11.71;89.34;;;;;
2023/10/26 07:21:06;;;;;;;5.9;3.7;;;;;;;11.59;87.08;;;;;
2023/10/26 07:31:06;;;;;;;5.9;3.7;;;;;;;11.73;87.19;;;;;
2023/10/26 07:42:06;;;;;;;5.9;3.7;;;;;;;11.7;86.67;;;;;
2023/10/26 07:52:06;;;;;;;11.1;9.6;;;;;;;11.88;87.78;;;;;
2023/10/26 08:02:07;;;;;;;11.1;9.6;;;;;;;11.98;87.12;;;;;
2023/10/26 08:13:06;;;;;;;11.1;9.6;;;;;;;11.94;86.8;;;;;
2023/10/26 08:23:06;;;;;;;14.9;11.1;;;;;;;12.04;88.11;;;;;
2023/10/26 08:33:06;;;;;;;14.9;11.1;;;;;;;12.51;89.49;;;;;
2023/10/26 08:43:06;;;;;;;14.9;11.1;;;;;;;12.73;88.18;;;;;
2023/10/26 08:53:06;;;;;;;9.9;7.3;;;;;;;12.97;85.32;;;;;
2023/10/26 09:03:06;;;;;;;9.9;7.3;;;;;;;13.13;83.99;;;;;
2023/10/26 09:14:06;;;;;;;9.9;7.3;;;;;;;13.64;83.39;;;;;
2023/10/26 09:25:06;;;;;;;5.6;2.9;;;;;;;14.21;79.35;;;;;
2023/10/26 09:35:06;;;;;;;5.6;2.9;;;;;;;14.37;79.18;;;;;
2023/10/26 09:45:06;;;;;;;5.6;2.9;;;;;;;14.38;78.44;;;;;
2023/10/26 09:55:06;;;;;;;5.4;2.9;;;;;;;14.68;77.93;;;;;
2023/10/26 10:06:07;;;;;;;5.4;2.9;;;;;;;14.67;77.62;;;;;
2023/10/26 10:17:06;;;;;;;3.5;1.8;;;;;;;14.79;77.37;;;;;
2023/10/26 10:28:06;;;;;;;3.5;1.8;;;;;;;14.99;75.12;;;;;
2023/10/26 10:39:06;;;;;;;3.5;1.8;;;;;;;14.9;75.07;;;;;
2023/10/26 10:49:06;;;;;;;3.8;1.4;;;;;;;15.25;74.19;;;;;
2023/10/26 11:00:07;;;;;;;3.8;1.4;;;;;;;15.77;71.09;;;;;
2023/10/26 11:10:06;;;;;;;3.8;1.4;;;;;;;16.23;69.1;;;;;
2023/10/26 11:21:06;;;;;;;2.8;1.3;;;;;;;16.5;69.02;;;;;
2023/10/26 11:31:06;;;;;;;2.8;1.3;;;;;;;15.55;68.47;;;;;
2023/10/26 11:41:06;;;;;;;2.8;1.3;;;;;;;16.06;66.78;;;;;
2023/10/26 11:52:06;;;;;;;2.9;1.4;;;;;;;16.08;67.44;;;;;
2023/10/26 12:02:06;;;;;;;2.9;1.4;;;;;;;16.38;65.5;;;;;
2023/10/26 12:13:06;;;;;;;2.9;1.4;;;;;;;16.51;63.98;;;;;
2023/10/26 12:24:06;;;;;;;2.4;0.9;;;;;;;16.54;64.25;;;;;
2023/10/26 12:34:06;;;;;;;2.4;0.9;;;;;;;16.87;61.75;;;;;
2023/10/26 12:44:06;;;;;;;2.4;0.9;;;;;;;16.36;63.14;;;;;
2023/10/26 12:54:07;;;;;;;3.6;1.1;;;;;;;16.5;64.26;;;;;
2023/10/26 13:04:06;;;;;;;3.6;1.1;;;;;;;16.48;64;;;;;
2023/10/26 13:15:06;;;;;;;3.6;1.1;;;;;;;16.03;64.62;;;;;
2023/10/26 13:25:06;;;;;;;3.4;1.5;;;;;;;16.1;63.02;;;;;
2023/10/26 13:36:06;;;;;;;3.4;1.5;;;;;;;16.33;64.77;;;;;
2023/10/26 13:47:06;;;;;;;3.4;1.6;;;;;;;16.35;64.16;;;;;
2023/10/26 13:57:06;;;;;;;3.4;1.6;;;;;;;16.32;63.13;;;;;
2023/10/26 14:08:06;;;;;;;3.4;1.6;;;;;;;16.35;63.62;;;;;
2023/10/26 14:18:06;;;;;;;4.8;2;;;;;;;16.42;62.75;;;;;
2023/10/26 14:28:06;;;;;;;4.8;2;;;;;;;15.95;63.57;;;;;
2023/10/26 14:39:06;;;;;;;4.8;2;;;;;;;15.66;65.44;;;;;
2023/10/26 14:49:06;;;;;;;3.5;1.8;;;;;;;15.12;66.78;;;;;
2023/10/26 15:00:06;;;;;;;3.5;1.8;;;;;;;14.4;69.3;;;;;
2023/10/26 15:10:06;;;;;;;3.5;1.8;;;;;;;13.99;69.65;;;;;
2023/10/26 15:21:06;;;;;;;5.1;2.4;;;;;;;13.65;70.26;;;;;
2023/10/26 15:31:06;;;;;;;5.1;2.4;;;;;;;13.51;69.76;;;;;
2023/10/26 15:41:06;;;;;;;5.1;2.4;;;;;;;13.57;70.13;;;;;
2023/10/26 15:52:06;;;;;;;4.1;1.9;;;;;;;13.62;70.05;;;;;
2023/10/26 16:02:06;;;;;;;4.1;1.9;;;;;;;13.66;70.27;;;;;
2023/10/26 16:13:06;;;;;;;4.1;1.9;;;;;;;13.61;70.75;;;;;
2023/10/26 16:23:06;;;;;;;4.1;2;;;;;;;13.38;71.31;;;;;
2023/10/26 16:34:06;;;;;;;4.1;2;;;;;;;13.19;72.13;;;;;
2023/10/26 16:45:06;;;;;;;4.1;2;;;;;;;13.28;72.26;;;;;
2023/10/26 16:55:06;;;;;;;5.5;3.3;;;;;;;13.27;71.53;;;;;
2023/10/26 17:06:08;;;;;;;5.5;3.3;;;;;;;13.25;71.74;;;;;
2023/10/26 17:16:07;;;;;;;5.4;2.6;;;;;;;13.08;72.09;;;;;
2023/10/26 17:27:07;;;;;;;5.4;2.6;;;;;;;12.88;72.49;;;;;
2023/10/26 17:38:06;;;;;;;5.4;2.6;;;;;;;12.74;72.85;;;;;
2023/10/26 17:48:08;;;;;;;5.8;2.4;;;;;;;12.78;71.68;;;;;
2023/10/26 17:59:06;;;;;;;5.8;2.4;;;;;;;12.72;73.08;;;;;
2023/10/26 18:09:07;;;;;;;5.8;2.4;;;;;;;12.66;73.64;;;;;
2023/10/26 18:20:08;;;;;;;6.5;3.9;;;;;;;12.73;73.36;;;;;
2023/10/26 18:31:08;;;;;;;6.5;3.9;;;;;;;12.83;72.39;;;;;
2023/10/26 18:41:06;;;;;;;6.5;3.9;;;;;;;12.88;72.56;;;;;
2023/10/26 18:51:06;;;;;;;8.1;4.2;;;;;;;12.84;72.78;;;;;
2023/10/26 19:02:06;;;;;;;8.1;4.2;;;;;;;12.98;71.41;;;;;
2023/10/26 19:13:06;;;;;;;8.1;4.2;;;;;;;13.16;71.25;;;;;
2023/10/26 19:23:06;;;;;;;6;3.2;;;;;;;13.26;70.63;;;;;
2023/10/26 19:33:06;;;;;;;6;3.2;;;;;;;13.19;71.1;;;;;
2023/10/26 19:44:09;;;;;;;6;3.2;;;;;;;13.13;71.17;;;;;
2023/10/26 19:55:07;;;;;;;6.2;3.5;;;;;;;12.99;72.38;;;;;
2023/10/26 20:05:07;;;;;;;6.2;3.5;;;;;;;13.04;72.15;;;;;
2023/10/26 20:16:06;;;;;;;7;3.7;;;;;;;13.1;72.39;;;;;
2023/10/26 20:26:06;;;;;;;7;3.7;;;;;;;13.13;72.68;;;;;
2023/10/26 20:37:07;;;;;;;7;3.7;;;;;;;13.19;72.79;;;;;
2023/10/26 20:47:06;;;;;;;6.6;2.8;;;;;;;13.27;72.98;;;;;
2023/10/26 20:57:06;;;;;;;6.6;2.8;;;;;;;13.31;73.2;;;;;
2023/10/26 21:08:07;;;;;;;6.6;2.8;;;;;;;13.28;73.91;;;;;
2023/10/26 21:18:06;;;;;;;7;3.3;;;;;;;13.23;73.91;;;;;
2023/10/26 21:28:07;;;;;;;7;3.3;;;;;;;13.02;74.67;;;;;
2023/10/26 21:39:06;;;;;;;7;3.3;;;;;;;12.96;75.52;;;;;
2023/10/26 21:50:06;;;;;;;6.3;4;;;;;;;12.8;76.43;;;;;
2023/10/26 22:01:08;;;;;;;6.3;4;;;;;;;12.89;77.79;;;;;
2023/10/26 22:11:06;;;;;;;6.3;4;;;;;;;12.65;81.52;;;;;
2023/10/26 22:21:07;;;;;;;6;3.1;;;;;;;12.35;84.26;;;;;
2023/10/26 22:32:07;;;;;;;6;3.1;;;;;;;12.23;85.48;;;;;
2023/10/26 22:43:07;;;;;;;6;3.1;;;;;;;12.23;85.9;;;;;
2023/10/26 22:53:07;;;;;;;3.3;1.5;;;;;;;12.19;86.4;;;;;
2023/10/26 23:04:06;;;;;;;3.3;1.5;;;;;;;11.97;87.83;;;;;
2023/10/26 23:14:07;;;;;;;3.3;1.5;;;;;;;12.12;87.67;;;;;
2023/10/26 23:24:07;;;;;;;3.3;1.1;;;;;;;11.97;88.45;;;;;
2023/10/26 23:34:07;;;;;;;3.3;1.1;;;;;;;12.02;88.79;;;;;
2023/10/26 23:44:07;;;;;;;3.3;1.1;;;;;;;12.29;87.88;;;;;
2023/10/26 23:55:07;;;;;;;2.4;1.3;;;;;;;12.16;88.93;;;;;
